Time;durP1;ratioP1;P1;durP2;ratioP2;P2;SDS_P1;SDS_P2;PMS_P1;PMS_P2;Temp;Humidity;BMP_temperature;BMP_pressure;BME280_temperature;BME280_humidity;BME280_pressure;Samples;Min_cycle;Max_cycle;Signal;HPM_P1;HPM_P2
2023/01/02 00:02:03;;;;;;;3.30;1.60;;;;;;;19.50;56.42;100393.13;5096550;28;21062;-63
2023/01/02 00:04:29;;;;;;;2.97;1.60;;;;;;;19.48;56.59;100392.69;5085882;28;20209;-63
2023/01/02 00:06:54;;;;;;;3.57;1.53;;;;;;;19.43;56.75;100391.00;5081170;28;20731;-62
2023/01/02 00:09:20;;;;;;;2.70;1.50;;;;;;;19.43;56.62;100382.41;5090680;28;20549;-62
2023/01/02 00:11:45;;;;;;;3.70;1.97;;;;;;;19.45;56.71;100387.72;5074296;28;20179;-63
2023/01/02 00:14:11;;;;;;;2.10;1.20;;;;;;;19.45;56.68;100382.84;5089618;28;20166;-62
2023/01/02 00:16:36;;;;;;;2.80;1.30;;;;;;;19.47;56.61;100365.28;5092175;28;20228;-62
2023/01/02 00:19:02;;;;;;;3.70;1.83;;;;;;;19.44;56.67;100361.16;5088499;28;20186;-62
2023/01/02 00:21:27;;;;;;;2.67;1.43;;;;;;;19.42;56.75;100360.69;5072039;28;20189;-62
2023/01/02 00:23:52;;;;;;;3.33;1.67;;;;;;;19.43;57.05;100350.06;5110827;28;20534;-63
2023/01/02 00:26:18;;;;;;;3.67;1.70;;;;;;;19.45;56.57;100351.34;5077218;28;20207;-62
2023/01/02 00:28:43;;;;;;;2.77;1.50;;;;;;;19.44;56.63;100343.13;5071827;28;20164;-63
2023/01/02 00:31:10;;;;;;;3.33;1.43;;;;;;;19.43;56.54;100339.47;5073973;28;20578;-63
2023/01/02 00:33:36;;;;;;;2.47;1.57;;;;;;;19.44;56.57;100343.97;5054041;28;20221;-62
2023/01/02 00:36:08;;;;;;;3.73;1.33;;;;;;;19.45;56.66;100359.94;5073413;28;20421;-62
2023/01/02 00:38:34;;;;;;;3.57;1.73;;;;;;;19.41;56.63;100369.69;5084364;28;20241;-62
2023/01/02 00:40:59;;;;;;;2.73;1.60;;;;;;;19.47;56.85;100366.09;5076693;28;20468;-62
2023/01/02 00:43:26;;;;;;;3.90;1.77;;;;;;;19.45;56.56;100365.66;5095937;28;20652;-62
2023/01/02 00:45:51;;;;;;;2.00;1.30;;;;;;;19.44;56.61;100361.16;5090580;28;20179;-63
2023/01/02 00:48:17;;;;;;;2.57;1.73;;;;;;;19.43;56.68;100356.63;5089050;28;20432;-63
2023/01/02 00:50:43;;;;;;;2.80;1.60;;;;;;;19.43;56.75;100367.25;5090369;28;20614;-62
2023/01/02 00:53:08;;;;;;;4.17;1.63;;;;;;;19.43;56.74;100368.09;5090671;28;20175;-62
2023/01/02 00:55:34;;;;;;;2.23;1.37;;;;;;;19.42;56.62;100365.59;5081162;28;20479;-63
2023/01/02 00:57:59;;;;;;;3.53;1.53;;;;;;;19.44;56.56;100368.91;5071343;28;20567;-62
2023/01/02 01:00:25;;;;;;;4.43;1.70;;;;;;;19.40;56.85;100374.56;5079600;28;20766;-62
2023/01/02 01:02:54;;;;;;;3.43;1.90;;;;;;;19.43;56.67;100370.97;5101443;28;20535;-62
2023/01/02 01:05:20;;;;;;;4.03;1.60;;;;;;;19.44;56.77;100371.75;5073728;28;20236;-62
2023/01/02 01:07:45;;;;;;;2.57;1.40;;;;;;;19.41;56.73;100373.34;5087023;28;20860;-62
2023/01/02 01:10:11;;;;;;;3.00;1.70;;;;;;;19.43;56.69;100368.09;5087338;28;20235;-62
2023/01/02 01:12:36;;;;;;;3.20;1.50;;;;;;;19.42;57.00;100366.41;5091208;28;20564;-62
2023/01/02 01:15:02;;;;;;;2.93;1.40;;;;;;;19.41;56.60;100366.81;5085578;28;20182;-62
2023/01/02 01:17:27;;;;;;;2.40;1.30;;;;;;;19.42;56.89;100360.69;5071189;28;20213;-62
2023/01/02 01:19:52;;;;;;;3.80;1.70;;;;;;;19.41;56.71;100361.91;5077972;28;20179;-63
2023/01/02 01:22:18;;;;;;;3.80;1.53;;;;;;;19.42;56.63;100360.69;5072792;28;20718;-63
2023/01/02 01:24:43;;;;;;;2.43;1.40;;;;;;;19.42;56.83;100363.56;5052207;28;20168;-62
2023/01/02 01:27:09;;;;;;;3.00;1.60;;;;;;;19.45;56.63;100365.66;5072384;28;20203;-62
2023/01/02 01:29:34;;;;;;;3.90;1.67;;;;;;;19.42;56.63;100357.81;5052201;28;20304;-63
2023/01/02 01:31:59;;;;;;;3.70;1.33;;;;;;;19.43;56.61;100348.06;5069899;28;20178;-62
2023/01/02 01:34:25;;;;;;;2.07;1.20;;;;;;;19.40;56.72;100345.94;5071182;28;20173;-63
2023/01/02 01:36:50;;;;;;;3.23;1.43;;;;;;;19.39;56.66;100347.16;5080650;28;20860;-62
2023/01/02 01:39:16;;;;;;;3.30;1.63;;;;;;;19.37;56.75;100340.97;5075333;28;20175;-62
2023/01/02 01:41:41;;;;;;;3.20;1.83;;;;;;;19.38;56.78;100336.94;5074633;28;20230;-63
2023/01/02 01:44:38;;;;;;;4.97;1.70;;;;;;;19.39;56.78;100346.31;5089254;28;20174;-62
2023/01/02 01:47:03;;;;;;;3.20;1.63;;;;;;;19.37;56.77;100340.97;5094958;28;20186;-62
2023/01/02 01:49:28;;;;;;;3.73;1.13;;;;;;;19.39;56.53;100346.31;5095055;28;20427;-62
2023/01/02 01:51:55;;;;;;;3.20;1.77;;;;;;;19.38;56.90;100339.78;5071376;28;20185;-63
2023/01/02 01:54:26;;;;;;;2.07;1.30;;;;;;;19.39;56.73;100344.31;5074933;28;20190;-63
2023/01/02 01:56:54;;;;;;;2.70;1.60;;;;;;;19.38;56.74;100322.63;5092709;28;20407;-63
2023/01/02 01:59:20;;;;;;;3.20;1.60;;;;;;;19.37;56.75;100323.81;5115475;28;20407;-62
2023/01/02 02:01:45;;;;;;;2.60;1.23;;;;;;;19.37;56.85;100326.66;5098669;28;20432;-62
2023/01/02 02:04:10;;;;;;;2.80;1.63;;;;;;;19.39;56.71;100327.13;5068126;28;20205;-62
2023/01/02 02:06:36;;;;;;;2.53;1.43;;;;;;;19.38;56.57;100327.50;5089342;28;20210;-63
2023/01/02 02:09:04;;;;;;;2.70;1.47;;;;;;;19.38;56.63;100325.47;5071443;28;20202;-62
2023/01/02 02:11:29;;;;;;;2.60;1.30;;;;;;;19.38;56.74;100331.19;5056755;28;20626;-62
2023/01/02 02:13:59;;;;;;;2.20;1.20;;;;;;;19.41;56.55;100323.88;5074049;28;20447;-62
2023/01/02 02:16:41;;;;;;;3.13;1.40;;;;;;;19.37;56.61;100323.81;5058304;28;20214;-62
2023/01/02 02:19:15;;;;;;;3.33;1.67;;;;;;;19.38;56.61;100324.63;5094628;28;20419;-63
2023/01/02 02:22:20;;;;;;;3.20;1.80;;;;;;;19.37;56.71;100315.22;5082366;28;20785;-62
2023/01/02 02:25:10;;;;;;;2.47;1.20;;;;;;;19.38;56.51;100313.19;5022562;28;20458;-62
2023/01/02 02:27:56;;;;;;;2.63;1.60;;;;;;;19.34;56.73;100318.88;5059251;28;20460;-62
2023/01/02 02:30:22;;;;;;;2.60;1.43;;;;;;;19.37;56.65;100315.22;5073809;28;20409;-62
2023/01/02 02:33:03;;;;;;;2.13;1.20;;;;;;;19.37;56.66;100314.41;5055926;28;20416;-62
2023/01/02 02:35:47;;;;;;;2.80;1.40;;;;;;;19.36;56.56;100304.97;5074036;28;20803;-62
2023/01/02 02:38:47;;;;;;;1.80;1.20;;;;;;;19.36;56.53;100304.19;5076191;28;20424;-63
2023/01/02 02:41:34;;;;;;;4.40;1.83;;;;;;;19.36;56.63;100304.97;5073737;28;20479;-63
2023/01/02 02:44:21;;;;;;;2.43;1.50;;;;;;;19.37;56.56;100306.63;5089999;28;20435;-63
2023/01/02 02:47:20;;;;;;;2.80;1.20;;;;;;;19.34;56.78;100304.56;5112745;28;20492;-62
2023/01/02 02:50:07;;;;;;;3.80;1.60;;;;;;;19.36;56.64;100298.44;5045940;28;20415;-62
2023/01/02 02:52:56;;;;;;;2.83;1.47;;;;;;;19.35;56.59;100300.47;5097436;28;20421;-63
2023/01/02 02:55:28;;;;;;;2.93;1.57;;;;;;;19.33;56.75;100310.66;5075876;28;20524;-62
2023/01/02 02:57:53;;;;;;;3.20;1.53;;;;;;;19.34;56.86;100304.56;5058670;28;20412;-62
2023/01/02 03:00:21;;;;;;;2.43;1.20;;;;;;;19.34;56.63;100298.81;5075614;28;20896;-62
2023/01/02 03:02:46;;;;;;;2.67;1.33;;;;;;;19.33;56.93;100302.91;5075512;28;20257;-62
2023/01/02 03:05:15;;;;;;;2.50;1.40;;;;;;;19.33;56.72;100300.03;5089766;28;20542;-63
2023/01/02 03:07:48;;;;;;;3.70;1.70;;;;;;;19.34;56.51;100306.56;5093489;28;20665;-62
2023/01/02 03:10:22;;;;;;;2.30;1.07;;;;;;;19.33;56.83;100296.34;5075864;28;20554;-62
2023/01/02 03:13:21;;;;;;;2.90;1.33;;;;;;;19.32;56.66;100298.38;5096524;28;20438;-62
2023/01/02 03:16:02;;;;;;;3.60;1.60;;;;;;;19.35;56.59;100303.34;5093385;28;20471;-62
2023/01/02 03:18:42;;;;;;;2.33;1.20;;;;;;;19.34;56.75;100289.41;5074963;28;20424;-63
2023/01/02 03:21:11;;;;;;;3.77;1.30;;;;;;;19.33;56.55;100300.03;5072779;28;20450;-62
2023/01/02 03:23:44;;;;;;;3.50;1.30;;;;;;;19.32;56.46;100297.56;5055175;28;20458;-62
2023/01/02 03:26:16;;;;;;;3.40;1.40;;;;;;;19.32;56.58;100300.44;5057192;28;20464;-63
2023/01/02 03:28:42;;;;;;;2.57;1.10;;;;;;;19.32;56.82;100304.09;5072929;28;20768;-62
2023/01/02 03:31:08;;;;;;;3.77;1.70;;;;;;;19.31;56.62;100307.38;5071140;28;21239;-62
2023/01/02 03:33:35;;;;;;;2.50;1.50;;;;;;;19.32;56.86;100301.22;5070325;28;20492;-63
2023/01/02 03:36:07;;;;;;;3.10;1.30;;;;;;;19.31;56.63;100302.44;5076665;28;20171;-62
2023/01/02 03:38:44;;;;;;;3.13;1.40;;;;;;;19.31;56.68;100295.91;5057204;28;20425;-62
2023/01/02 03:41:10;;;;;;;2.83;1.60;;;;;;;19.31;56.66;100299.59;5058237;28;20479;-62
2023/01/02 03:43:37;;;;;;;2.40;1.37;;;;;;;19.30;56.75;100297.94;5082867;28;20444;-62
2023/01/02 03:46:32;;;;;;;8.30;1.40;;;;;;;19.27;56.68;100298.69;5054415;28;20893;-62
2023/01/02 03:49:19;;;;;;;2.83;1.27;;;;;;;19.30;56.67;100295.09;5061184;28;20445;-62
2023/01/02 03:51:44;;;;;;;3.07;1.40;;;;;;;19.29;56.61;100296.28;5092418;28;20515;-62
2023/01/02 03:54:10;;;;;;;2.63;1.30;;;;;;;19.29;56.61;100295.47;5074561;28;20871;-62
2023/01/02 03:56:53;;;;;;;2.80;1.30;;;;;;;19.32;56.52;100297.56;5088594;28;20193;-62
2023/01/02 03:59:38;;;;;;;4.30;1.90;;;;;;;19.34;56.41;100289.41;5092103;28;20262;-62
2023/01/02 04:02:31;;;;;;;2.17;1.20;;;;;;;19.31;56.54;100285.28;5066816;28;20440;-62
2023/01/02 04:04:58;;;;;;;1.90;1.20;;;;;;;19.28;56.31;100280.34;5077632;28;20449;-62
2023/01/02 04:08:02;;;;;;;2.40;1.20;;;;;;;19.30;56.60;100277.91;5063382;28;20472;-63
2023/01/02 04:10:28;;;;;;;2.40;1.30;;;;;;;19.28;56.65;100268.06;5087794;28;20531;-62
2023/01/02 04:12:55;;;;;;;2.27;1.27;;;;;;;19.30;56.48;100277.06;5071469;28;20924;-62
2023/01/02 04:15:24;;;;;;;2.30;1.30;;;;;;;19.27;56.81;100275.81;5112524;28;20170;-62
2023/01/02 04:17:53;;;;;;;3.40;1.20;;;;;;;19.31;56.61;100273.03;5077476;28;21319;-62
2023/01/02 04:20:24;;;;;;;2.83;1.10;;;;;;;19.29;56.54;100281.16;5061268;28;20490;-62
2023/01/02 04:22:54;;;;;;;4.13;1.47;;;;;;;19.31;56.93;100279.56;5073729;28;20420;-62
2023/01/02 04:25:19;;;;;;;2.77;1.30;;;;;;;19.30;56.52;100285.66;5056578;28;20524;-62
2023/01/02 04:27:56;;;;;;;2.53;1.30;;;;;;;19.31;56.32;100282.41;5091834;28;20456;-62
2023/01/02 04:30:21;;;;;;;2.63;1.23;;;;;;;19.28;56.49;100286.06;5089747;28;20713;-62
2023/01/02 04:32:47;;;;;;;2.17;1.40;;;;;;;19.28;56.58;100285.22;5055879;28;20425;-62
2023/01/02 04:35:14;;;;;;;2.37;1.17;;;;;;;19.28;56.69;100291.78;5037060;28;20151;-62
2023/01/02 04:37:41;;;;;;;3.57;1.53;;;;;;;19.28;56.68;100280.34;5049082;28;20179;-63
2023/01/02 04:40:11;;;;;;;2.20;1.43;;;;;;;19.28;56.77;100294.66;5056180;28;20429;-62
2023/01/02 04:42:36;;;;;;;2.93;1.40;;;;;;;19.33;57.14;100287.75;5071172;28;20485;-62
2023/01/02 04:45:02;;;;;;;2.23;1.10;;;;;;;19.30;56.47;100289.34;5055630;28;20434;-62
2023/01/02 04:47:27;;;;;;;2.93;1.30;;;;;;;19.30;56.52;100289.34;5111823;28;20594;-62
2023/01/02 04:49:52;;;;;;;2.33;1.30;;;;;;;19.26;56.56;100282.75;5093561;28;20165;-62
2023/01/02 04:52:18;;;;;;;2.40;1.30;;;;;;;19.30;57.06;100285.66;5087919;28;20183;-62
2023/01/02 04:54:43;;;;;;;2.10;1.23;;;;;;;19.30;56.72;100277.06;5091190;28;20162;-62
2023/01/02 04:57:09;;;;;;;4.20;1.50;;;;;;;19.25;56.53;100275.38;5084977;28;20179;-62
2023/01/02 04:59:34;;;;;;;2.47;1.30;;;;;;;19.29;56.46;100290.56;5071204;28;20212;-62
2023/01/02 05:01:59;;;;;;;2.17;1.07;;;;;;;19.30;56.44;100289.34;5071385;28;20208;-62
2023/01/02 05:04:25;;;;;;;2.10;1.13;;;;;;;19.30;56.66;100291.38;5073063;28;20203;-62
2023/01/02 05:06:50;;;;;;;2.30;1.47;;;;;;;19.30;56.60;100294.25;5058557;28;20661;-63
2023/01/02 05:09:16;;;;;;;3.40;1.57;;;;;;;19.31;56.58;100291.00;5076778;28;20724;-62
2023/01/02 05:11:41;;;;;;;1.93;1.17;;;;;;;19.29;56.57;100286.88;5091616;28;20174;-62
2023/01/02 05:14:07;;;;;;;2.17;1.17;;;;;;;19.27;56.83;100304.44;5072611;28;20167;-63
2023/01/02 05:16:32;;;;;;;3.20;1.40;;;;;;;19.31;56.06;100293.88;5073826;28;20223;-62
2023/01/02 05:18:58;;;;;;;2.70;1.23;;;;;;;19.31;56.41;100311.03;5071612;28;20161;-62
2023/01/02 05:24:07;;;;;;;2.87;1.50;;;;;;;19.30;56.50;100311.41;5070527;28;20576;-62
2023/01/02 05:26:32;;;;;;;2.47;1.40;;;;;;;19.29;56.42;100302.03;5053047;28;20449;-63
2023/01/02 05:28:58;;;;;;;2.13;1.30;;;;;;;19.31;56.57;100313.09;5073040;28;20743;-62
2023/01/02 05:31:24;;;;;;;1.97;1.10;;;;;;;19.30;56.48;100314.28;5070576;28;20151;-62
2023/01/02 05:33:58;;;;;;;3.10;1.40;;;;;;;19.33;56.31;100317.22;5073505;28;20259;-62
2023/01/02 05:36:24;;;;;;;2.30;1.40;;;;;;;19.31;56.38;100319.63;5057868;28;20584;-62
2023/01/02 05:38:49;;;;;;;2.90;1.50;;;;;;;19.29;56.42;100319.19;5087012;28;20506;-62
2023/01/02 05:41:15;;;;;;;2.53;1.40;;;;;;;19.33;56.40;100316.38;5090515;28;20210;-62
2023/01/02 05:43:40;;;;;;;2.73;1.30;;;;;;;19.31;56.72;100325.34;5091135;28;20174;-63
2023/01/02 05:46:16;;;;;;;2.20;1.10;;;;;;;19.32;56.46;100329.84;5086908;28;20260;-62
2023/01/02 05:48:41;;;;;;;2.60;1.40;;;;;;;19.31;56.75;100341.72;5090473;28;20162;-62
2023/01/02 05:51:07;;;;;;;2.30;1.20;;;;;;;19.31;56.36;100341.72;5089747;28;20785;-62
2023/01/02 05:53:33;;;;;;;2.47;1.40;;;;;;;19.31;56.33;100348.25;5070889;28;20436;-62
2023/01/02 05:56:09;;;;;;;2.50;1.50;;;;;;;19.33;56.36;100356.47;5055447;28;20433;-62
2023/01/02 05:58:35;;;;;;;2.50;1.20;;;;;;;19.32;56.35;100360.53;5070260;28;20255;-62
2023/01/02 06:01:04;;;;;;;2.53;1.13;;;;;;;19.33;56.36;100367.91;5072677;28;20434;-62
2023/01/02 06:03:30;;;;;;;2.50;1.17;;;;;;;19.30;56.46;100375.22;5081843;28;20419;-63
2023/01/02 06:05:55;;;;;;;2.10;1.10;;;;;;;19.32;56.48;100377.72;5110084;28;20438;-62
2023/01/02 06:08:21;;;;;;;2.27;1.13;;;;;;;19.30;56.50;100380.13;5090064;28;20169;-62
2023/01/02 06:10:50;;;;;;;2.17;1.27;;;;;;;19.31;56.39;100385.47;5087377;28;20186;-62
2023/01/02 06:13:15;;;;;;;2.33;1.30;;;;;;;19.34;56.14;100383.88;5072265;28;20186;-62
2023/01/02 06:15:41;;;;;;;1.83;1.23;;;;;;;19.33;56.60;100385.94;5080137;28;20441;-62
2023/01/02 06:18:06;;;;;;;2.20;1.23;;;;;;;19.31;56.37;100393.25;5091951;28;20154;-62
2023/01/02 06:20:31;;;;;;;2.13;1.30;;;;;;;19.31;56.24;100399.78;5089150;28;20828;-62
2023/01/02 06:22:57;;;;;;;2.40;1.30;;;;;;;19.32;56.38;100395.69;5094001;28;20178;-62
2023/01/02 06:25:22;;;;;;;2.83;1.20;;;;;;;19.34;56.53;100387.56;5094428;28;20182;-62
2023/01/02 06:27:48;;;;;;;2.20;1.33;;;;;;;19.32;56.43;100392.84;5094145;28;20201;-62
2023/01/02 06:30:13;;;;;;;2.90;1.20;;;;;;;19.32;56.29;100389.16;5070711;28;20187;-62
2023/01/02 06:32:39;;;;;;;3.20;1.40;;;;;;;19.31;56.45;100385.47;5074076;28;20254;-62
2023/01/02 06:35:04;;;;;;;2.73;1.30;;;;;;;19.33;56.60;100397.38;5076159;28;20250;-63
2023/01/02 06:37:30;;;;;;;1.87;1.10;;;;;;;19.32;56.42;100394.91;5087988;28;20605;-63
2023/01/02 06:39:55;;;;;;;2.60;1.40;;;;;;;19.31;56.56;100399.78;5094058;28;20173;-62
2023/01/02 06:42:21;;;;;;;3.73;1.40;;;;;;;19.33;56.31;100410.84;5093967;28;20222;-63
2023/01/02 06:44:46;;;;;;;1.93;1.10;;;;;;;19.34;56.24;100403.91;5090879;28;20202;-62
2023/01/02 06:47:11;;;;;;;3.30;1.60;;;;;;;19.32;56.55;100407.16;5075637;28;20217;-62
2023/01/02 06:49:37;;;;;;;2.37;1.40;;;;;;;19.33;56.30;100410.84;5075513;28;20201;-62
2023/01/02 06:52:02;;;;;;;2.43;1.40;;;;;;;19.32;56.54;100410.00;5097599;28;20640;-62
2023/01/02 06:54:28;;;;;;;2.07;1.30;;;;;;;19.33;56.29;100411.69;5081194;28;20215;-62
2023/01/02 06:56:53;;;;;;;3.70;1.70;;;;;;;19.30;56.40;100412.44;5073101;28;20182;-62
2023/01/02 06:59:19;;;;;;;2.47;1.27;;;;;;;19.34;56.25;100415.38;5073537;28;20171;-62
2023/01/02 07:01:44;;;;;;;3.00;1.20;;;;;;;19.32;56.42;100417.78;5075778;28;20221;-63
2023/01/02 07:04:14;;;;;;;2.13;1.10;;;;;;;19.32;56.34;100423.53;5073264;28;20625;-62
2023/01/02 07:06:40;;;;;;;2.10;1.30;;;;;;;19.32;56.15;100421.47;5080850;28;20199;-62
2023/01/02 07:09:05;;;;;;;2.70;1.37;;;;;;;19.31;56.47;100422.69;5092448;28;20732;-62
2023/01/02 07:11:31;;;;;;;2.07;1.23;;;;;;;19.31;56.37;100413.28;5075365;28;20187;-62
2023/01/02 07:13:56;;;;;;;2.13;1.30;;;;;;;19.32;56.29;100417.78;5073123;28;20171;-62
2023/01/02 07:16:22;;;;;;;3.00;1.37;;;;;;;19.32;55.93;100427.19;5072973;28;20171;-62
2023/01/02 07:18:47;;;;;;;2.67;1.10;;;;;;;19.32;56.35;100420.66;5075340;28;20228;-62
2023/01/02 07:21:13;;;;;;;2.00;1.40;;;;;;;19.31;56.48;100428.41;5098600;28;20810;-62
2023/01/02 07:23:40;;;;;;;2.20;1.10;;;;;;;19.33;56.20;100425.16;5113823;28;20170;-62
2023/01/02 07:26:06;;;;;;;2.70;1.40;;;;;;;19.33;56.36;100437.47;5113395;28;20207;-62
2023/01/02 07:28:31;;;;;;;4.87;1.50;;;;;;;19.35;56.70;100434.19;5094365;28;20555;-62
2023/01/02 07:30:59;;;;;;;2.80;1.33;;;;;;;19.35;56.31;100435.03;5093238;28;20175;-62
2023/01/02 07:33:25;;;;;;;2.50;1.37;;;;;;;19.30;56.00;100437.38;5083722;28;20240;-62
2023/01/02 07:35:50;;;;;;;2.17;1.10;;;;;;;19.32;56.37;100435.78;5061451;28;20421;-63
2023/01/02 07:38:15;;;;;;;2.73;1.17;;;;;;;19.31;56.22;100439.84;5091747;28;20178;-62
2023/01/02 07:40:41;;;;;;;2.03;1.10;;;;;;;19.37;56.35;100446.91;5074362;28;20186;-62
2023/01/02 07:43:06;;;;;;;2.27;1.33;;;;;;;19.37;56.30;100455.50;5072709;28;20178;-62
2023/01/02 07:45:33;;;;;;;2.10;1.43;;;;;;;19.37;56.22;100446.91;5043277;28;20197;-62
2023/01/02 07:47:58;;;;;;;2.10;1.10;;;;;;;19.35;56.19;100454.22;5070275;28;20201;-62
2023/01/02 07:50:24;;;;;;;3.33;1.20;;;;;;;19.32;56.43;100461.53;5071419;28;20888;-62
2023/01/02 07:52:49;;;;;;;2.20;1.27;;;;;;;19.35;56.18;100468.53;5072464;28;20179;-62
2023/01/02 07:55:15;;;;;;;1.93;1.20;;;;;;;19.36;56.13;100478.81;5083221;28;20514;-62
2023/01/02 07:57:40;;;;;;;1.83;1.00;;;;;;;19.36;56.19;100473.88;5094304;28;20659;-62
2023/01/02 08:00:06;;;;;;;1.90;0.97;;;;;;;19.37;56.04;100477.59;5098056;28;20291;-62
2023/01/02 08:02:31;;;;;;;2.00;1.10;;;;;;;19.37;56.19;100483.31;5072316;28;20601;-62
2023/01/02 08:04:57;;;;;;;1.73;1.03;;;;;;;19.37;56.06;100478.41;5072058;28;20440;-62
2023/01/02 08:07:22;;;;;;;2.40;1.30;;;;;;;19.36;56.54;100481.66;5087581;28;20211;-62
2023/01/02 08:09:48;;;;;;;2.43;1.50;;;;;;;19.34;56.22;100484.91;5092430;28;20159;-62
2023/01/02 08:12:13;;;;;;;2.50;1.40;;;;;;;19.34;56.19;100499.22;5092147;28;20163;-62
2023/01/02 08:14:39;;;;;;;2.10;1.00;;;;;;;19.34;56.23;100496.34;5089866;28;20244;-62
2023/01/02 08:17:04;;;;;;;2.00;1.10;;;;;;;19.34;56.23;100502.09;5089749;28;20182;-62
2023/01/02 08:19:29;;;;;;;2.00;1.20;;;;;;;19.33;56.30;100509.03;5095680;28;20178;-61
2023/01/02 08:21:55;;;;;;;2.30;1.43;;;;;;;19.34;56.13;100502.09;5092062;28;20624;-62
2023/01/02 08:24:20;;;;;;;2.17;1.23;;;;;;;19.39;56.34;100503.78;5090070;28;20170;-62
2023/01/02 08:26:46;;;;;;;2.53;1.10;;;;;;;19.38;56.14;100513.59;5073461;28;20210;-62
2023/01/02 08:29:11;;;;;;;1.63;0.93;;;;;;;19.35;56.35;100505.75;5074422;28;20187;-62
2023/01/02 08:31:37;;;;;;;2.60;1.20;;;;;;;19.35;56.29;100512.31;5070213;28;20178;-62
2023/01/02 08:34:02;;;;;;;2.17;1.00;;;;;;;19.35;56.34;100526.63;5073032;28;20221;-62
2023/01/02 08:36:27;;;;;;;1.70;0.97;;;;;;;19.33;56.17;100528.22;5076006;28;20189;-62
2023/01/02 08:38:53;;;;;;;2.53;1.00;;;;;;;19.36;56.08;100533.19;5086342;28;20183;-62
2023/01/02 08:41:31;;;;;;;2.43;1.03;;;;;;;19.32;56.22;100533.09;5070412;28;20272;-62
2023/01/02 08:43:57;;;;;;;2.50;1.23;;;;;;;19.34;56.54;100533.56;5068952;28;20189;-62
2023/01/02 08:46:22;;;;;;;2.20;1.10;;;;;;;19.36;56.24;100536.06;5091104;28;20459;-62
2023/01/02 08:48:47;;;;;;;1.90;1.10;;;;;;;19.34;56.59;100547.91;5079770;28;20194;-62
2023/01/02 08:51:13;;;;;;;2.30;1.30;;;;;;;19.31;56.34;100548.63;5071192;28;20210;-63
2023/01/02 08:53:38;;;;;;;2.60;1.27;;;;;;;19.30;56.17;100552.72;5052916;28;20792;-63
2023/01/02 08:56:20;;;;;;;2.30;1.13;;;;;;;19.29;56.57;100553.09;5111548;28;20758;-63
2023/01/02 08:58:56;;;;;;;2.50;1.27;;;;;;;19.28;56.37;100566.59;5073197;28;20257;-63
2023/01/02 09:01:22;;;;;;;1.90;1.00;;;;;;;19.30;56.53;100572.75;5055492;28;20508;-63
2023/01/02 09:03:48;;;;;;;2.13;1.30;;;;;;;19.29;56.56;100576.84;5070652;28;20799;-63
2023/01/02 09:06:13;;;;;;;2.33;1.13;;;;;;;19.31;56.45;100565.00;5072006;28;20710;-63
2023/01/02 09:08:38;;;;;;;2.10;1.10;;;;;;;19.30;56.47;100569.91;5083536;28;20254;-63
2023/01/02 09:11:14;;;;;;;2.20;1.17;;;;;;;19.29;56.35;100590.31;5073059;28;20232;-63
2023/01/02 09:13:40;;;;;;;2.40;1.33;;;;;;;19.31;56.35;100587.91;5102034;28;20500;-63
2023/01/02 09:16:06;;;;;;;2.70;1.20;;;;;;;19.29;56.71;100591.16;5080798;28;20448;-63
2023/01/02 09:18:31;;;;;;;1.80;0.90;;;;;;;19.31;56.48;100605.09;5069965;28;20672;-63
2023/01/02 09:20:57;;;;;;;1.67;0.90;;;;;;;19.30;56.24;100594.81;5072844;28;20603;-63
2023/01/02 09:23:22;;;;;;;2.63;1.20;;;;;;;19.27;56.39;100593.53;5069640;28;20168;-63
2023/01/02 09:25:47;;;;;;;2.33;1.03;;;;;;;19.29;56.22;100593.16;5070205;28;20279;-63
2023/01/02 09:28:13;;;;;;;2.10;1.00;;;;;;;19.30;56.36;100591.94;5072205;28;20214;-63
2023/01/02 09:30:38;;;;;;;2.47;1.13;;;;;;;19.29;56.69;100605.47;5069834;28;20225;-63
2023/01/02 09:33:04;;;;;;;1.80;1.10;;;;;;;19.28;56.49;100605.84;5072704;28;20244;-63
2023/01/02 09:35:29;;;;;;;1.90;1.00;;;;;;;19.29;56.38;100616.06;5071061;28;20527;-63
2023/01/02 09:37:54;;;;;;;2.20;1.30;;;;;;;19.28;56.43;100614.41;5088099;28;20178;-63
2023/01/02 09:40:20;;;;;;;2.70;1.50;;;;;;;19.28;56.54;100623.84;5074525;28;20187;-63
2023/01/02 09:42:45;;;;;;;1.80;1.00;;;;;;;19.29;56.27;100618.94;5049903;28;20227;-63
2023/01/02 09:45:11;;;;;;;2.43;1.30;;;;;;;19.28;56.51;100631.59;5056257;28;20246;-63
2023/01/02 09:47:37;;;;;;;1.90;0.97;;;;;;;19.27;56.34;100636.47;5080087;28;20939;-63
2023/01/02 09:50:04;;;;;;;1.83;1.00;;;;;;;19.27;56.47;100639.34;5070572;28;20222;-62
2023/01/02 09:52:47;;;;;;;2.50;1.00;;;;;;;19.27;56.49;100639.34;5053944;28;20183;-63
2023/01/02 09:55:19;;;;;;;2.33;1.00;;;;;;;19.27;56.52;100639.34;5037143;28;20836;-62
2023/01/02 09:58:02;;;;;;;1.80;1.20;;;;;;;19.27;56.67;100641.41;5056349;28;20823;-63
2023/01/02 10:00:30;;;;;;;2.00;1.03;;;;;;;19.28;56.49;100643.03;5058798;28;20527;-63
2023/01/02 10:03:01;;;;;;;1.97;0.90;;;;;;;19.29;56.29;100641.84;5055151;28;20516;-63
2023/01/02 10:05:36;;;;;;;1.80;1.00;;;;;;;19.28;56.36;100641.03;5074279;28;20464;-63
2023/01/02 10:08:10;;;;;;;2.50;0.97;;;;;;;19.25;56.46;100650.34;5079688;28;20460;-63
2023/01/02 10:10:43;;;;;;;1.80;1.00;;;;;;;19.27;56.58;100635.66;5096494;28;20435;-63
2023/01/02 10:13:21;;;;;;;2.20;1.30;;;;;;;19.27;56.34;100644.25;5113669;28;20955;-63
2023/01/02 10:15:48;;;;;;;2.50;1.10;;;;;;;19.29;56.16;100642.69;5095702;28;20473;-63
2023/01/02 10:18:19;;;;;;;2.73;1.60;;;;;;;19.26;56.40;100642.59;5079326;28;21213;-63
2023/01/02 10:20:47;;;;;;;2.73;1.10;;;;;;;19.25;56.41;100640.94;5088904;28;20879;-63
2023/01/02 10:23:16;;;;;;;2.00;0.97;;;;;;;19.27;56.29;100645.06;5026203;28;20439;-63
2023/01/02 10:25:43;;;;;;;2.50;1.13;;;;;;;19.27;56.54;100645.06;5059765;28;20520;-63
2023/01/02 10:28:23;;;;;;;2.57;1.07;;;;;;;19.29;56.29;100648.41;5090378;28;20463;-63
2023/01/02 10:30:54;;;;;;;2.80;1.10;;;;;;;19.31;56.38;100645.97;5094289;28;20396;-63
2023/01/02 10:33:26;;;;;;;2.20;1.33;;;;;;;19.29;56.48;100642.69;5076143;28;20420;-63
2023/01/02 10:35:56;;;;;;;1.80;0.97;;;;;;;19.31;56.35;100645.97;5093912;28;20439;-62
2023/01/02 10:38:22;;;;;;;2.17;1.13;;;;;;;19.28;56.11;100641.03;5058250;28;20495;-62
2023/01/02 10:40:48;;;;;;;2.47;1.20;;;;;;;19.26;56.57;100646.28;5073490;28;20465;-62
2023/01/02 10:43:14;;;;;;;1.90;1.07;;;;;;;19.28;56.50;100643.88;5050065;28;20218;-62
2023/01/02 10:45:40;;;;;;;2.40;1.20;;;;;;;19.28;56.50;100658.19;5073781;28;20413;-62
2023/01/02 10:48:05;;;;;;;2.17;0.90;;;;;;;19.28;56.40;100648.78;5075606;28;20210;-62
2023/01/02 10:50:35;;;;;;;3.60;1.17;;;;;;;19.28;56.35;100658.19;5074803;28;20529;-62
2023/01/02 10:53:09;;;;;;;2.23;1.10;;;;;;;19.29;56.41;100641.84;5055889;28;20183;-62
2023/01/02 10:55:38;;;;;;;1.87;0.80;;;;;;;19.25;56.57;100641.78;5071775;28;20931;-62
2023/01/02 10:58:05;;;;;;;1.90;1.00;;;;;;;19.29;56.56;100641.84;5088011;28;20444;-63
2023/01/02 11:00:33;;;;;;;1.90;0.87;;;;;;;19.29;56.35;100653.28;5075312;28;20444;-62
2023/01/02 11:03:17;;;;;;;1.73;0.87;;;;;;;19.29;56.08;100659.00;5054154;28;20473;-62
2023/01/02 11:05:44;;;;;;;2.70;1.33;;;;;;;19.27;56.30;100659.38;5073307;28;20813;-62
2023/01/02 11:08:14;;;;;;;1.83;1.03;;;;;;;19.29;56.28;100662.72;5073306;28;20509;-62
2023/01/02 11:10:40;;;;;;;1.80;0.90;;;;;;;19.29;56.40;100653.28;5075508;28;20453;-62
2023/01/02 11:13:23;;;;;;;2.30;1.20;;;;;;;19.28;56.38;100640.19;5073101;28;20421;-62
2023/01/02 11:15:51;;;;;;;1.80;1.00;;;;;;;19.28;56.27;100646.75;5057332;28;20183;-62
2023/01/02 11:18:35;;;;;;;2.00;1.00;;;;;;;19.29;56.29;100645.53;5073021;28;20398;-62
2023/01/02 11:21:04;;;;;;;1.80;1.10;;;;;;;19.29;56.26;100636.09;5065749;28;20419;-62
2023/01/02 11:23:35;;;;;;;2.57;1.40;;;;;;;19.30;56.07;100624.28;5092142;28;20885;-62
2023/01/02 11:26:01;;;;;;;2.00;0.90;;;;;;;19.26;56.68;100626.25;5071918;28;20507;-62
2023/01/02 11:28:27;;;;;;;2.13;0.97;;;;;;;19.27;56.25;100627.88;5074116;28;20513;-62
2023/01/02 11:31:09;;;;;;;1.80;0.90;;;;;;;19.27;56.27;100618.50;5074366;28;20273;-62
2023/01/02 11:33:35;;;;;;;2.20;1.10;;;;;;;19.26;56.22;100614.78;5069239;28;20445;-62
2023/01/02 11:36:04;;;;;;;2.40;0.90;;;;;;;19.25;56.32;100621.72;5073581;28;20441;-62